Vers la page d'accueil de NAV CANADA Ouverture d'une nouvelle session Chercher sur le site AWWS Clause de non-reponsabilité To the equivalent English page Trucs et astuces FAQ Quoi de neuf sur le site Vers la section Prévisions et observations / NOTAM Vers le site web pour <<Déposer un plan de vol>> Publications et liens importants Mise à jour du profil d'usager Numéros de téléphone des FIC Mes données météo personnelles Données météo de route Données météo régionales Données météo locales Vers la section Prévisions et observations / NOTAM
Requête générée le 2020/10/27 à 08:36:22 UTC. L'information météorologique disponible à ce moment est affichée.

METAR/TAF

Si vous notez des différences entre le METAR/TAF codé et le METAR/TAF en langage clair, veuillez utiliser la version codée. Les bulletins LWIS ne sont pas décodés en langage clair.

MONTREAL/ST-HUBERT/QC    (voir Cam météo)

SPECI CYHU 270805Z AUTO 29008KT 9SM OVC025 03/02 A3019 RMK SLP225=
SPECI
LIEU
CYHU - MONTREAL/ST-HUBERT/QC
DATE - HEURE
27 OCTOBRE 2020 - 0805 UTC
VENT
290 VRAIS @ 8  NOEUDS
VISIBILITE
9 MILLES TERR.
PORTEE VISUELLE DE PISTE
METEO
NEBULOSITE
CIEL COUVERT 2500  PI
TEMP / PT DE ROSEE
3 C / 2 C
ALTIMETRE
30.19 PO HG
TEMPS RECENT
CISAILLEMENT

SPECI CYHU 270802Z AUTO 29006KT 9SM OVC023 03/02 A3018 RMK SLP224=
SPECI
LIEU
CYHU - MONTREAL/ST-HUBERT/QC
DATE - HEURE
27 OCTOBRE 2020 - 0802 UTC
VENT
290 VRAIS @ 6  NOEUDS
VISIBILITE
9 MILLES TERR.
PORTEE VISUELLE DE PISTE
METEO
NEBULOSITE
CIEL COUVERT 2300  PI
TEMP / PT DE ROSEE
3 C / 2 C
ALTIMETRE
30.18 PO HG
TEMPS RECENT
CISAILLEMENT

METAR CYHU 270800Z AUTO 30007KT 9SM OVC025 03/02 A3018 RMK SLP224=
METAR
LIEU
CYHU - MONTREAL/ST-HUBERT/QC
DATE - HEURE
27 OCTOBRE 2020 - 0800 UTC
VENT
300 VRAIS @ 7  NOEUDS
VISIBILITE
9 MILLES TERR.
PORTEE VISUELLE DE PISTE
METEO
NEBULOSITE
CIEL COUVERT 2500  PI
TEMP / PT DE ROSEE
3 C / 2 C
ALTIMETRE
30.18 PO HG
TEMPS RECENT
CISAILLEMENT

METAR CYHU 270700Z AUTO 28007KT 9SM BKN100 OVC160 03/02 A3019 RMK SLP225=
METAR
LIEU
CYHU - MONTREAL/ST-HUBERT/QC
DATE - HEURE
27 OCTOBRE 2020 - 0700 UTC
VENT
280 VRAIS @ 7  NOEUDS
VISIBILITE
9 MILLES TERR.
PORTEE VISUELLE DE PISTE
METEO
NEBULOSITE
NUAGES FRAGMENTES (5/8 - 7/8) 10000  PI
CIEL COUVERT 16000  PI
TEMP / PT DE ROSEE
3 C / 2 C
ALTIMETRE
30.19 PO HG
TEMPS RECENT
CISAILLEMENT

SPECI CYHU 270605Z AUTO 28006KT 9SM FEW012 OVC026 03/02 A3018 RMK SLP222=
SPECI
LIEU
CYHU - MONTREAL/ST-HUBERT/QC
DATE - HEURE
27 OCTOBRE 2020 - 0605 UTC
VENT
280 VRAIS @ 6  NOEUDS
VISIBILITE
9 MILLES TERR.
PORTEE VISUELLE DE PISTE
METEO
NEBULOSITE
QUELQUES NUAGES (1/8 - 2/8) 1200  PI
CIEL COUVERT 2600  PI
TEMP / PT DE ROSEE
3 C / 2 C
ALTIMETRE
30.18 PO HG
TEMPS RECENT
CISAILLEMENT

METAR CYHU 270600Z AUTO 27008KT 9SM FEW012 OVC024 03/02 A3018 RMK SLP222=
METAR
LIEU
CYHU - MONTREAL/ST-HUBERT/QC
DATE - HEURE
27 OCTOBRE 2020 - 0600 UTC
VENT
270 VRAIS @ 8  NOEUDS
VISIBILITE
9 MILLES TERR.
PORTEE VISUELLE DE PISTE
METEO
NEBULOSITE
QUELQUES NUAGES (1/8 - 2/8) 1200  PI
CIEL COUVERT 2400  PI
TEMP / PT DE ROSEE
3 C / 2 C
ALTIMETRE
30.18 PO HG
TEMPS RECENT
CISAILLEMENT

TAF CYHU 270538Z 2706/2806 26008KT P6SM FEW008 SCT050 BKN070 TEMPO 2706/2707 5SM -RA -DZ BR BKN008 OVC050 FM270700 27008KT P6SM SCT008 OVC100 TEMPO 2707/2709 3SM BR BKN008 OVC100 FM270900 28010KT P6SM FEW010 SCT100 FM271800 28010KT P6SM BKN100 BKN170 FM272300 28009KT P6SM FEW160 BECMG 2723/2801 VRB03KT RMK FCST BASED ON AUTO OBS. NXT FCST BY 271200Z=
TAF
LIEU

CYHU - MONTREAL/ST-HUBERT/QC
VALIDITE [UTC]
27 OCT - 0538 à
28 OCT - 0600
 
PERIODES
[UTC]
VENT
[DEGRES VRAIS]
VISIBILITE
[MILLES TERR.]
METEO
NEBULOSITE
[PIEDS AGL]
 
27 OCT - 0600 à
27 OCT - 0700
260 @ 8 NOEUDS
6+
---
800 QUELQUES
5000 EPARS
7000 FRAGMENTES
CHANGEMENTS TEMPORAIRES
27 OCT - 0600 à
27 OCT - 0700
 
5
PLUIE FAIBLE
BRUINE FAIBLE
BRUME
800 FRAGMENTES
5000 CIEL COUVERT
 
27 OCT - 0700 à
27 OCT - 0900
270 @ 8 NOEUDS
6+
---
800 EPARS
10000 CIEL COUVERT
CHANGEMENTS TEMPORAIRES
27 OCT - 0700 à
27 OCT - 0900
 
3
BRUME
800 FRAGMENTES
10000 CIEL COUVERT
 
27 OCT - 0900 à
27 OCT - 1800
280 @ 10 NOEUDS
6+
---
1000 QUELQUES
10000 EPARS
 
27 OCT - 1800 à
27 OCT - 2300
280 @ 10 NOEUDS
6+
---
10000 FRAGMENTES
17000 FRAGMENTES
 
27 OCT - 2300 à
28 OCT - 0600
280 @ 9 NOEUDS
6+
---
16000 QUELQUES
CHANGEMENTS GRADUELS
27 OCT - 2300 à
28 OCT - 0100
VARIABLE @ 3 NOEUDS
 
 
 
REMARQUES
LA PREVISION EST FONDEE SUR DES OBSERVATIONS AUTOMATISEES - LA PREVISION SUIVANTE SERA EMISE POUR 1200 UTC LE 27


Votre heure Heure UTC
Données météorologiques fournies par Environnement Canada et NAV CANADA